sensor_id;sensor_type;location;lat;lon;timestamp;P1;durP1;ratioP1;P2;durP2;ratioP2
19537;SDS011;9914;51.008;4.300;2022-09-30T00:00:25;12.20;;;11.17;;
19537;SDS011;9914;51.008;4.300;2022-09-30T00:02:51;13.07;;;11.67;;
19537;SDS011;9914;51.008;4.300;2022-09-30T00:05:16;15.13;;;11.67;;
19537;SDS011;9914;51.008;4.300;2022-09-30T00:07:42;14.30;;;12.70;;
19537;SDS011;9914;51.008;4.300;2022-09-30T00:10:08;13.43;;;12.20;;
19537;SDS011;9914;51.008;4.300;2022-09-30T00:12:33;12.63;;;11.13;;
19537;SDS011;9914;51.008;4.300;2022-09-30T00:14:59;13.93;;;12.73;;
19537;SDS011;9914;51.008;4.300;2022-09-30T00:17:25;13.27;;;11.97;;
19537;SDS011;9914;51.008;4.300;2022-09-30T00:19:52;12.90;;;11.60;;
19537;SDS011;9914;51.008;4.300;2022-09-30T00:22:17;12.87;;;11.40;;
19537;SDS011;9914;51.008;4.300;2022-09-30T00:24:43;17.43;;;12.60;;
19537;SDS011;9914;51.008;4.300;2022-09-30T00:27:10;13.90;;;11.30;;
19537;SDS011;9914;51.008;4.300;2022-09-30T00:29:36;12.80;;;11.47;;
19537;SDS011;9914;51.008;4.300;2022-09-30T00:32:02;13.63;;;12.33;;
19537;SDS011;9914;51.008;4.300;2022-09-30T00:34:28;13.67;;;12.27;;
19537;SDS011;9914;51.008;4.300;2022-09-30T00:36:53;13.20;;;11.83;;
19537;SDS011;9914;51.008;4.300;2022-09-30T00:39:25;13.47;;;11.80;;
19537;SDS011;9914;51.008;4.300;2022-09-30T00:41:55;13.30;;;11.67;;
19537;SDS011;9914;51.008;4.300;2022-09-30T00:50:04;16.30;;;12.63;;
19537;SDS011;9914;51.008;4.300;2022-09-30T00:52:44;16.03;;;13.10;;
19537;SDS011;9914;51.008;4.300;2022-09-30T00:58:51;14.43;;;12.27;;
19537;SDS011;9914;51.008;4.300;2022-09-30T01:01:19;11.90;;;10.67;;
19537;SDS011;9914;51.008;4.300;2022-09-30T01:03:53;14.03;;;12.53;;
19537;SDS011;9914;51.008;4.300;2022-09-30T01:06:41;15.23;;;13.50;;
19537;SDS011;9914;51.008;4.300;2022-09-30T01:09:07;14.20;;;12.50;;
19537;SDS011;9914;51.008;4.300;2022-09-30T01:11:34;13.50;;;12.20;;
19537;SDS011;9914;51.008;4.300;2022-09-30T01:14:16;15.67;;;14.07;;
19537;SDS011;9914;51.008;4.300;2022-09-30T01:34:01;17.97;;;14.00;;
19537;SDS011;9914;51.008;4.300;2022-09-30T01:45:15;14.80;;;12.83;;
19537;SDS011;9914;51.008;4.300;2022-09-30T01:48:02;15.97;;;13.43;;
19537;SDS011;9914;51.008;4.300;2022-09-30T01:50:57;19.83;;;14.23;;
19537;SDS011;9914;51.008;4.300;2022-09-30T01:53:30;16.07;;;14.37;;
19537;SDS011;9914;51.008;4.300;2022-09-30T01:56:15;14.80;;;13.30;;
19537;SDS011;9914;51.008;4.300;2022-09-30T01:59:01;16.67;;;12.57;;
19537;SDS011;9914;51.008;4.300;2022-09-30T02:01:47;20.80;;;14.47;;
19537;SDS011;9914;51.008;4.300;2022-09-30T02:04:19;15.27;;;13.67;;
19537;SDS011;9914;51.008;4.300;2022-09-30T02:06:51;14.27;;;12.87;;
19537;SDS011;9914;51.008;4.300;2022-09-30T02:10:02;18.40;;;14.13;;
19537;SDS011;9914;51.008;4.300;2022-09-30T02:12:24;17.97;;;14.13;;
19537;SDS011;9914;51.008;4.300;2022-09-30T02:14:54;19.03;;;12.67;;
19537;SDS011;9914;51.008;4.300;2022-09-30T02:17:28;14.73;;;13.27;;
19537;SDS011;9914;51.008;4.300;2022-09-30T02:20:04;15.20;;;13.70;;
19537;SDS011;9914;51.008;4.300;2022-09-30T02:22:40;15.50;;;13.37;;
19537;SDS011;9914;51.008;4.300;2022-09-30T02:25:11;17.43;;;12.93;;
19537;SDS011;9914;51.008;4.300;2022-09-30T02:27:51;15.57;;;13.63;;
19537;SDS011;9914;51.008;4.300;2022-09-30T02:30:21;16.80;;;15.00;;
19537;SDS011;9914;51.008;4.300;2022-09-30T02:37:56;14.27;;;12.77;;
19537;SDS011;9914;51.008;4.300;2022-09-30T02:43:03;15.17;;;13.30;;
19537;SDS011;9914;51.008;4.300;2022-09-30T02:45:30;15.20;;;13.67;;
19537;SDS011;9914;51.008;4.300;2022-09-30T02:50:44;17.60;;;13.77;;
19537;SDS011;9914;51.008;4.300;2022-09-30T02:53:34;16.27;;;13.83;;
19537;SDS011;9914;51.008;4.300;2022-09-30T02:58:53;14.73;;;13.23;;
19537;SDS011;9914;51.008;4.300;2022-09-30T03:01:20;16.27;;;14.30;;
19537;SDS011;9914;51.008;4.300;2022-09-30T03:03:49;20.07;;;16.53;;
19537;SDS011;9914;51.008;4.300;2022-09-30T03:06:19;18.33;;;15.30;;
19537;SDS011;9914;51.008;4.300;2022-09-30T03:08:44;18.47;;;14.73;;
19537;SDS011;9914;51.008;4.300;2022-09-30T03:11:12;18.90;;;15.90;;
19537;SDS011;9914;51.008;4.300;2022-09-30T03:21:43;17.83;;;15.50;;
19537;SDS011;9914;51.008;4.300;2022-09-30T03:32:47;19.83;;;17.20;;
19537;SDS011;9914;51.008;4.300;2022-09-30T03:37:59;20.37;;;16.97;;
19537;SDS011;9914;51.008;4.300;2022-09-30T03:45:49;21.70;;;18.90;;
19537;SDS011;9914;51.008;4.300;2022-09-30T03:48:17;24.20;;;19.30;;
19537;SDS011;9914;51.008;4.300;2022-09-30T03:50:44;25.67;;;21.37;;
19537;SDS011;9914;51.008;4.300;2022-09-30T03:53:10;29.30;;;20.77;;
19537;SDS011;9914;51.008;4.300;2022-09-30T03:55:47;25.83;;;21.73;;
19537;SDS011;9914;51.008;4.300;2022-09-30T03:58:15;27.10;;;21.97;;
19537;SDS011;9914;51.008;4.300;2022-09-30T04:00:46;23.47;;;20.73;;
19537;SDS011;9914;51.008;4.300;2022-09-30T04:03:14;29.20;;;21.37;;
19537;SDS011;9914;51.008;4.300;2022-09-30T04:05:41;22.60;;;20.20;;
19537;SDS011;9914;51.008;4.300;2022-09-30T04:08:07;23.43;;;20.50;;
19537;SDS011;9914;51.008;4.300;2022-09-30T04:10:33;27.07;;;21.20;;
19537;SDS011;9914;51.008;4.300;2022-09-30T04:12:58;25.90;;;21.93;;
19537;SDS011;9914;51.008;4.300;2022-09-30T04:15:24;25.47;;;21.00;;
19537;SDS011;9914;51.008;4.300;2022-09-30T04:17:51;23.73;;;21.17;;
19537;SDS011;9914;51.008;4.300;2022-09-30T04:20:17;24.67;;;20.73;;
19537;SDS011;9914;51.008;4.300;2022-09-30T04:22:42;27.17;;;22.20;;
19537;SDS011;9914;51.008;4.300;2022-09-30T04:25:08;25.20;;;21.10;;
19537;SDS011;9914;51.008;4.300;2022-09-30T04:27:34;26.20;;;21.87;;
19537;SDS011;9914;51.008;4.300;2022-09-30T04:29:59;28.73;;;21.67;;
19537;SDS011;9914;51.008;4.300;2022-09-30T04:32:25;29.03;;;21.40;;
19537;SDS011;9914;51.008;4.300;2022-09-30T04:34:52;24.23;;;21.47;;
19537;SDS011;9914;51.008;4.300;2022-09-30T04:37:18;28.87;;;21.87;;
19537;SDS011;9914;51.008;4.300;2022-09-30T04:39:45;29.90;;;22.77;;
19537;SDS011;9914;51.008;4.300;2022-09-30T04:42:10;25.80;;;21.80;;
19537;SDS011;9914;51.008;4.300;2022-09-30T04:44:36;25.80;;;21.93;;
19537;SDS011;9914;51.008;4.300;2022-09-30T04:47:02;25.80;;;20.60;;
19537;SDS011;9914;51.008;4.300;2022-09-30T04:49:27;23.50;;;21.00;;
19537;SDS011;9914;51.008;4.300;2022-09-30T04:51:53;27.27;;;20.77;;
19537;SDS011;9914;51.008;4.300;2022-09-30T04:54:19;30.10;;;21.33;;
19537;SDS011;9914;51.008;4.300;2022-09-30T04:56:45;23.17;;;19.47;;
19537;SDS011;9914;51.008;4.300;2022-09-30T04:59:10;22.63;;;19.30;;
19537;SDS011;9914;51.008;4.300;2022-09-30T05:01:36;23.80;;;21.27;;
19537;SDS011;9914;51.008;4.300;2022-09-30T05:04:03;21.47;;;19.10;;
19537;SDS011;9914;51.008;4.300;2022-09-30T05:06:29;24.90;;;21.03;;
19537;SDS011;9914;51.008;4.300;2022-09-30T05:08:54;19.63;;;17.53;;
19537;SDS011;9914;51.008;4.300;2022-09-30T05:11:20;21.73;;;17.97;;
19537;SDS011;9914;51.008;4.300;2022-09-30T05:13:47;21.97;;;18.73;;
19537;SDS011;9914;51.008;4.300;2022-09-30T05:16:13;25.20;;;18.37;;
19537;SDS011;9914;51.008;4.300;2022-09-30T05:18:39;21.93;;;19.27;;
19537;SDS011;9914;51.008;4.300;2022-09-30T05:21:09;28.90;;;22.70;;
19537;SDS011;9914;51.008;4.300;2022-09-30T05:23:36;25.00;;;20.50;;
19537;SDS011;9914;51.008;4.300;2022-09-30T05:26:02;28.10;;;22.20;;
19537;SDS011;9914;51.008;4.300;2022-09-30T05:28:29;28.23;;;22.80;;
19537;SDS011;9914;51.008;4.300;2022-09-30T05:30:58;27.03;;;22.93;;
19537;SDS011;9914;51.008;4.300;2022-09-30T05:33:25;31.00;;;24.50;;
19537;SDS011;9914;51.008;4.300;2022-09-30T05:35:57;33.90;;;25.43;;
19537;SDS011;9914;51.008;4.300;2022-09-30T05:38:25;27.67;;;23.37;;
19537;SDS011;9914;51.008;4.300;2022-09-30T05:40:51;29.93;;;23.73;;
19537;SDS011;9914;51.008;4.300;2022-09-30T05:43:17;34.23;;;30.77;;
19537;SDS011;9914;51.008;4.300;2022-09-30T05:45:50;31.10;;;25.67;;
19537;SDS011;9914;51.008;4.300;2022-09-30T05:48:17;33.97;;;26.27;;
19537;SDS011;9914;51.008;4.300;2022-09-30T05:50:42;29.87;;;24.97;;
19537;SDS011;9914;51.008;4.300;2022-09-30T05:53:08;31.07;;;26.30;;
19537;SDS011;9914;51.008;4.300;2022-09-30T05:55:34;32.67;;;25.63;;
19537;SDS011;9914;51.008;4.300;2022-09-30T05:58:00;27.03;;;24.07;;
19537;SDS011;9914;51.008;4.300;2022-09-30T06:00:26;28.77;;;23.27;;
19537;SDS011;9914;51.008;4.300;2022-09-30T06:02:51;32.73;;;25.27;;
19537;SDS011;9914;51.008;4.300;2022-09-30T06:05:17;34.17;;;26.10;;
19537;SDS011;9914;51.008;4.300;2022-09-30T06:07:43;33.17;;;26.80;;
19537;SDS011;9914;51.008;4.300;2022-09-30T06:10:09;33.53;;;26.63;;
19537;SDS011;9914;51.008;4.300;2022-09-30T06:12:36;38.23;;;27.03;;
19537;SDS011;9914;51.008;4.300;2022-09-30T06:15:02;36.10;;;28.00;;
19537;SDS011;9914;51.008;4.300;2022-09-30T06:17:29;33.90;;;26.27;;
19537;SDS011;9914;51.008;4.300;2022-09-30T06:19:55;37.17;;;28.27;;
19537;SDS011;9914;51.008;4.300;2022-09-30T06:22:20;33.10;;;27.23;;
19537;SDS011;9914;51.008;4.300;2022-09-30T06:24:46;38.47;;;27.97;;
19537;SDS011;9914;51.008;4.300;2022-09-30T06:27:12;35.07;;;29.60;;
19537;SDS011;9914;51.008;4.300;2022-09-30T06:29:37;38.63;;;30.17;;
19537;SDS011;9914;51.008;4.300;2022-09-30T06:32:03;41.73;;;31.97;;
19537;SDS011;9914;51.008;4.300;2022-09-30T06:34:30;46.07;;;34.13;;
19537;SDS011;9914;51.008;4.300;2022-09-30T06:36:56;47.80;;;36.77;;
19537;SDS011;9914;51.008;4.300;2022-09-30T06:39:22;47.57;;;34.27;;
19537;SDS011;9914;51.008;4.300;2022-09-30T06:41:47;44.37;;;35.47;;
19537;SDS011;9914;51.008;4.300;2022-09-30T06:44:13;53.67;;;35.70;;
19537;SDS011;9914;51.008;4.300;2022-09-30T06:46:38;50.33;;;37.60;;
19537;SDS011;9914;51.008;4.300;2022-09-30T06:49:04;48.03;;;37.30;;
19537;SDS011;9914;51.008;4.300;2022-09-30T06:51:31;50.63;;;37.60;;
19537;SDS011;9914;51.008;4.300;2022-09-30T06:53:57;54.67;;;40.70;;
19537;SDS011;9914;51.008;4.300;2022-09-30T06:56:24;48.50;;;39.17;;
19537;SDS011;9914;51.008;4.300;2022-09-30T06:58:50;59.03;;;39.80;;
19537;SDS011;9914;51.008;4.300;2022-09-30T07:01:16;65.17;;;40.10;;
19537;SDS011;9914;51.008;4.300;2022-09-30T07:03:43;60.47;;;43.23;;
19537;SDS011;9914;51.008;4.300;2022-09-30T07:06:10;57.33;;;41.77;;
19537;SDS011;9914;51.008;4.300;2022-09-30T07:08:37;53.10;;;41.57;;
19537;SDS011;9914;51.008;4.300;2022-09-30T07:11:05;58.90;;;44.33;;
19537;SDS011;9914;51.008;4.300;2022-09-30T07:13:38;61.83;;;44.70;;
19537;SDS011;9914;51.008;4.300;2022-09-30T07:16:13;64.20;;;44.00;;
19537;SDS011;9914;51.008;4.300;2022-09-30T07:18:40;52.10;;;41.03;;
19537;SDS011;9914;51.008;4.300;2022-09-30T07:21:07;57.73;;;43.20;;
19537;SDS011;9914;51.008;4.300;2022-09-30T07:23:33;50.07;;;41.83;;
19537;SDS011;9914;51.008;4.300;2022-09-30T07:25:59;65.03;;;44.67;;
19537;SDS011;9914;51.008;4.300;2022-09-30T07:28:29;64.50;;;43.87;;
19537;SDS011;9914;51.008;4.300;2022-09-30T07:30:59;53.67;;;43.47;;
19537;SDS011;9914;51.008;4.300;2022-09-30T07:33:30;56.87;;;44.63;;
19537;SDS011;9914;51.008;4.300;2022-09-30T07:35:57;63.33;;;44.07;;
19537;SDS011;9914;51.008;4.300;2022-09-30T07:38:24;60.07;;;43.40;;
19537;SDS011;9914;51.008;4.300;2022-09-30T07:43:22;51.80;;;40.27;;
19537;SDS011;9914;51.008;4.300;2022-09-30T07:46:01;60.40;;;42.80;;
19537;SDS011;9914;51.008;4.300;2022-09-30T07:48:28;44.40;;;37.60;;
19537;SDS011;9914;51.008;4.300;2022-09-30T07:51:02;45.23;;;38.93;;
19537;SDS011;9914;51.008;4.300;2022-09-30T07:53:28;46.43;;;39.80;;
19537;SDS011;9914;51.008;4.300;2022-09-30T07:55:54;50.27;;;39.27;;
19537;SDS011;9914;51.008;4.300;2022-09-30T07:58:19;47.50;;;38.30;;
19537;SDS011;9914;51.008;4.300;2022-09-30T08:00:48;41.93;;;35.60;;
19537;SDS011;9914;51.008;4.300;2022-09-30T08:03:14;44.47;;;37.30;;
19537;SDS011;9914;51.008;4.300;2022-09-30T08:05:41;46.30;;;37.90;;
19537;SDS011;9914;51.008;4.300;2022-09-30T08:08:13;40.53;;;35.50;;
19537;SDS011;9914;51.008;4.300;2022-09-30T08:10:40;47.40;;;36.87;;
19537;SDS011;9914;51.008;4.300;2022-09-30T08:13:06;41.37;;;35.60;;
19537;SDS011;9914;51.008;4.300;2022-09-30T08:15:31;48.80;;;35.77;;
19537;SDS011;9914;51.008;4.300;2022-09-30T08:17:57;41.00;;;33.00;;
19537;SDS011;9914;51.008;4.300;2022-09-30T08:20:23;35.40;;;31.07;;
19537;SDS011;9914;51.008;4.300;2022-09-30T08:22:51;34.63;;;30.93;;
19537;SDS011;9914;51.008;4.300;2022-09-30T08:25:17;31.50;;;27.40;;
19537;SDS011;9914;51.008;4.300;2022-09-30T08:27:43;32.10;;;28.70;;
19537;SDS011;9914;51.008;4.300;2022-09-30T08:30:09;31.73;;;27.97;;
19537;SDS011;9914;51.008;4.300;2022-09-30T08:32:35;31.50;;;26.27;;
19537;SDS011;9914;51.008;4.300;2022-09-30T08:35:00;27.23;;;24.50;;
19537;SDS011;9914;51.008;4.300;2022-09-30T08:37:26;25.40;;;22.80;;
19537;SDS011;9914;51.008;4.300;2022-09-30T08:39:52;25.83;;;22.53;;
19537;SDS011;9914;51.008;4.300;2022-09-30T08:48:39;18.47;;;16.53;;
19537;SDS011;9914;51.008;4.300;2022-09-30T08:53:26;16.20;;;14.57;;
19537;SDS011;9914;51.008;4.300;2022-09-30T08:55:55;15.17;;;13.27;;
19537;SDS011;9914;51.008;4.300;2022-09-30T08:58:30;14.10;;;12.70;;
19537;SDS011;9914;51.008;4.300;2022-09-30T09:03:40;12.40;;;10.73;;
19537;SDS011;9914;51.008;4.300;2022-09-30T09:06:14;11.13;;;10.10;;
19537;SDS011;9914;51.008;4.300;2022-09-30T09:09:11;11.53;;;10.43;;
19537;SDS011;9914;51.008;4.300;2022-09-30T09:20:53;9.87;;;7.43;;
19537;SDS011;9914;51.008;4.300;2022-09-30T09:23:20;10.30;;;7.87;;
19537;SDS011;9914;51.008;4.300;2022-09-30T09:25:46;8.07;;;7.27;;
19537;SDS011;9914;51.008;4.300;2022-09-30T09:31:11;10.43;;;6.83;;
19537;SDS011;9914;51.008;4.300;2022-09-30T09:33:41;9.60;;;6.90;;
19537;SDS011;9914;51.008;4.300;2022-09-30T09:39:00;9.20;;;6.40;;
19537;SDS011;9914;51.008;4.300;2022-09-30T09:44:20;7.50;;;6.80;;
19537;SDS011;9914;51.008;4.300;2022-09-30T09:47:04;9.40;;;6.63;;
19537;SDS011;9914;51.008;4.300;2022-09-30T09:49:57;8.03;;;6.87;;
19537;SDS011;9914;51.008;4.300;2022-09-30T09:55:27;8.97;;;7.00;;
19537;SDS011;9914;51.008;4.300;2022-09-30T09:58:06;7.27;;;6.07;;
19537;SDS011;9914;51.008;4.300;2022-09-30T10:00:37;6.77;;;5.70;;
19537;SDS011;9914;51.008;4.300;2022-09-30T10:03:14;6.73;;;5.53;;
19537;SDS011;9914;51.008;4.300;2022-09-30T10:05:46;9.73;;;5.37;;
19537;SDS011;9914;51.008;4.300;2022-09-30T10:08:26;5.33;;;4.57;;
19537;SDS011;9914;51.008;4.300;2022-09-30T10:10:57;5.40;;;4.90;;
19537;SDS011;9914;51.008;4.300;2022-09-30T10:13:25;12.03;;;5.40;;
19537;SDS011;9914;51.008;4.300;2022-09-30T10:15:54;6.37;;;4.83;;
19537;SDS011;9914;51.008;4.300;2022-09-30T10:18:28;6.03;;;5.10;;
19537;SDS011;9914;51.008;4.300;2022-09-30T10:21:01;8.13;;;5.33;;
19537;SDS011;9914;51.008;4.300;2022-09-30T10:23:46;6.17;;;5.57;;
19537;SDS011;9914;51.008;4.300;2022-09-30T10:34:01;7.17;;;5.10;;
19537;SDS011;9914;51.008;4.300;2022-09-30T10:36:42;5.73;;;5.20;;
19537;SDS011;9914;51.008;4.300;2022-09-30T10:39:22;6.70;;;5.07;;
19537;SDS011;9914;51.008;4.300;2022-09-30T10:44:31;5.57;;;5.07;;
19537;SDS011;9914;51.008;4.300;2022-09-30T10:47:20;5.90;;;4.80;;
19537;SDS011;9914;51.008;4.300;2022-09-30T10:49:50;5.40;;;4.83;;
19537;SDS011;9914;51.008;4.300;2022-09-30T10:52:33;6.40;;;5.00;;
19537;SDS011;9914;51.008;4.300;2022-09-30T10:55:06;5.23;;;4.60;;
19537;SDS011;9914;51.008;4.300;2022-09-30T10:57:50;5.83;;;5.17;;
19537;SDS011;9914;51.008;4.300;2022-09-30T11:00:19;4.87;;;4.33;;
19537;SDS011;9914;51.008;4.300;2022-09-30T11:05:29;7.30;;;4.93;;
19537;SDS011;9914;51.008;4.300;2022-09-30T11:07:58;4.67;;;4.27;;
19537;SDS011;9914;51.008;4.300;2022-09-30T11:13:29;7.80;;;3.47;;
19537;SDS011;9914;51.008;4.300;2022-09-30T11:21:59;4.80;;;4.30;;
19537;SDS011;9914;51.008;4.300;2022-09-30T11:24:47;4.63;;;4.33;;
19537;SDS011;9914;51.008;4.300;2022-09-30T11:30:00;6.63;;;5.07;;
19537;SDS011;9914;51.008;4.300;2022-09-30T11:35:40;5.90;;;5.30;;
19537;SDS011;9914;51.008;4.300;2022-09-30T11:38:40;5.53;;;5.03;;
19537;SDS011;9914;51.008;4.300;2022-09-30T11:58:12;6.80;;;5.17;;
19537;SDS011;9914;51.008;4.300;2022-09-30T12:00:42;5.50;;;4.40;;
19537;SDS011;9914;51.008;4.300;2022-09-30T12:03:12;6.00;;;5.40;;
19537;SDS011;9914;51.008;4.300;2022-09-30T12:08:19;5.43;;;4.93;;
19537;SDS011;9914;51.008;4.300;2022-09-30T12:10:53;5.50;;;5.00;;
19537;SDS011;9914;51.008;4.300;2022-09-30T12:13:32;5.40;;;4.87;;
19537;SDS011;9914;51.008;4.300;2022-09-30T12:16:03;10.67;;;4.90;;
19537;SDS011;9914;51.008;4.300;2022-09-30T12:18:40;5.17;;;4.67;;
19537;SDS011;9914;51.008;4.300;2022-09-30T12:21:15;5.73;;;4.83;;
19537;SDS011;9914;51.008;4.300;2022-09-30T12:24:54;5.17;;;4.67;;
19537;SDS011;9914;51.008;4.300;2022-09-30T12:27:04;5.13;;;4.63;;
19537;SDS011;9914;51.008;4.300;2022-09-30T12:30:03;5.00;;;4.60;;
19537;SDS011;9914;51.008;4.300;2022-09-30T12:46:48;5.00;;;4.60;;
19537;SDS011;9914;51.008;4.300;2022-09-30T12:49:27;5.47;;;4.93;;
19537;SDS011;9914;51.008;4.300;2022-09-30T12:51:56;5.57;;;5.00;;
19537;SDS011;9914;51.008;4.300;2022-09-30T12:56:56;5.80;;;5.30;;
19537;SDS011;9914;51.008;4.300;2022-09-30T12:59:30;6.97;;;5.07;;
19537;SDS011;9914;51.008;4.300;2022-09-30T13:20:51;5.60;;;5.20;;
19537;SDS011;9914;51.008;4.300;2022-09-30T13:31:25;5.93;;;5.47;;
19537;SDS011;9914;51.008;4.300;2022-09-30T13:34:27;4.93;;;4.20;;
19537;SDS011;9914;51.008;4.300;2022-09-30T13:44:37;4.93;;;4.23;;
19537;SDS011;9914;51.008;4.300;2022-09-30T13:47:18;5.17;;;4.67;;
19537;SDS011;9914;51.008;4.300;2022-09-30T13:52:40;4.40;;;4.00;;
19537;SDS011;9914;51.008;4.300;2022-09-30T13:55:10;4.53;;;3.70;;
19537;SDS011;9914;51.008;4.300;2022-09-30T14:06:16;3.93;;;3.33;;
19537;SDS011;9914;51.008;4.300;2022-09-30T14:09:00;5.30;;;3.10;;
19537;SDS011;9914;51.008;4.300;2022-09-30T14:14:54;3.90;;;3.37;;
19537;SDS011;9914;51.008;4.300;2022-09-30T14:31:52;3.60;;;2.90;;
19537;SDS011;9914;51.008;4.300;2022-09-30T14:34:19;4.43;;;3.50;;
19537;SDS011;9914;51.008;4.300;2022-09-30T14:36:47;4.97;;;3.10;;
19537;SDS011;9914;51.008;4.300;2022-09-30T14:39:17;3.70;;;3.40;;
19537;SDS011;9914;51.008;4.300;2022-09-30T14:41:53;6.83;;;3.90;;
19537;SDS011;9914;51.008;4.300;2022-09-30T14:44:22;4.20;;;3.60;;
19537;SDS011;9914;51.008;4.300;2022-09-30T14:46:51;3.77;;;3.00;;
19537;SDS011;9914;51.008;4.300;2022-09-30T14:49:24;4.50;;;3.97;;
19537;SDS011;9914;51.008;4.300;2022-09-30T14:51:56;5.53;;;3.90;;
19537;SDS011;9914;51.008;4.300;2022-09-30T14:54:25;4.53;;;3.73;;
19537;SDS011;9914;51.008;4.300;2022-09-30T14:56:54;4.27;;;3.80;;
19537;SDS011;9914;51.008;4.300;2022-09-30T14:59:28;4.87;;;4.43;;
19537;SDS011;9914;51.008;4.300;2022-09-30T15:01:59;4.10;;;3.70;;
19537;SDS011;9914;51.008;4.300;2022-09-30T15:04:33;4.87;;;3.73;;
19537;SDS011;9914;51.008;4.300;2022-09-30T15:07:09;4.23;;;3.83;;
19537;SDS011;9914;51.008;4.300;2022-09-30T15:09:40;3.60;;;3.30;;
19537;SDS011;9914;51.008;4.300;2022-09-30T15:14:51;4.70;;;4.13;;
19537;SDS011;9914;51.008;4.300;2022-09-30T15:17:26;4.17;;;3.77;;
19537;SDS011;9914;51.008;4.300;2022-09-30T15:19:54;3.93;;;3.53;;
19537;SDS011;9914;51.008;4.300;2022-09-30T15:22:22;3.40;;;3.20;;
19537;SDS011;9914;51.008;4.300;2022-09-30T15:24:50;3.47;;;3.17;;
19537;SDS011;9914;51.008;4.300;2022-09-30T15:29:57;3.83;;;3.40;;
19537;SDS011;9914;51.008;4.300;2022-09-30T15:32:25;3.50;;;3.20;;
19537;SDS011;9914;51.008;4.300;2022-09-30T15:34:53;4.20;;;3.80;;
19537;SDS011;9914;51.008;4.300;2022-09-30T15:37:25;4.43;;;4.03;;
19537;SDS011;9914;51.008;4.300;2022-09-30T15:39:57;3.40;;;3.20;;
19537;SDS011;9914;51.008;4.300;2022-09-30T15:42:43;3.90;;;3.13;;
19537;SDS011;9914;51.008;4.300;2022-09-30T15:47:57;3.47;;;3.17;;
19537;SDS011;9914;51.008;4.300;2022-09-30T15:53:04;3.67;;;3.33;;
19537;SDS011;9914;51.008;4.300;2022-09-30T15:55:43;3.10;;;2.90;;
19537;SDS011;9914;51.008;4.300;2022-09-30T16:01:09;2.87;;;2.67;;
19537;SDS011;9914;51.008;4.300;2022-09-30T16:03:54;3.63;;;2.47;;
19537;SDS011;9914;51.008;4.300;2022-09-30T16:11:42;4.80;;;2.93;;
19537;SDS011;9914;51.008;4.300;2022-09-30T16:14:23;2.77;;;2.57;;
19537;SDS011;9914;51.008;4.300;2022-09-30T16:16:55;3.83;;;2.47;;
19537;SDS011;9914;51.008;4.300;2022-09-30T16:19:23;2.83;;;2.60;;
19537;SDS011;9914;51.008;4.300;2022-09-30T16:21:50;6.30;;;3.30;;
19537;SDS011;9914;51.008;4.300;2022-09-30T16:26:53;4.57;;;3.53;;
19537;SDS011;9914;51.008;4.300;2022-09-30T16:29:21;4.63;;;2.80;;
19537;SDS011;9914;51.008;4.300;2022-09-30T16:31:48;3.80;;;2.30;;
19537;SDS011;9914;51.008;4.300;2022-09-30T16:34:36;4.67;;;3.00;;
19537;SDS011;9914;51.008;4.300;2022-09-30T16:37:09;2.70;;;2.50;;
19537;SDS011;9914;51.008;4.300;2022-09-30T16:39:37;2.80;;;2.60;;
19537;SDS011;9914;51.008;4.300;2022-09-30T16:42:02;2.40;;;2.20;;
19537;SDS011;9914;51.008;4.300;2022-09-30T16:44:28;2.80;;;2.60;;
19537;SDS011;9914;51.008;4.300;2022-09-30T16:46:59;2.50;;;2.30;;
19537;SDS011;9914;51.008;4.300;2022-09-30T16:49:25;2.93;;;2.60;;
19537;SDS011;9914;51.008;4.300;2022-09-30T16:51:52;2.77;;;2.30;;
19537;SDS011;9914;51.008;4.300;2022-09-30T16:54:17;3.07;;;2.70;;
19537;SDS011;9914;51.008;4.300;2022-09-30T16:56:43;4.47;;;2.80;;
19537;SDS011;9914;51.008;4.300;2022-09-30T16:59:12;2.90;;;2.70;;
19537;SDS011;9914;51.008;4.300;2022-09-30T17:01:39;6.00;;;3.00;;
19537;SDS011;9914;51.008;4.300;2022-09-30T17:04:06;2.90;;;2.70;;
19537;SDS011;9914;51.008;4.300;2022-09-30T17:06:33;3.90;;;3.50;;
19537;SDS011;9914;51.008;4.300;2022-09-30T17:09:00;4.17;;;2.80;;
19537;SDS011;9914;51.008;4.300;2022-09-30T17:11:29;4.10;;;3.70;;
19537;SDS011;9914;51.008;4.300;2022-09-30T17:13:59;3.87;;;3.27;;
19537;SDS011;9914;51.008;4.300;2022-09-30T17:16:26;3.40;;;3.10;;
19537;SDS011;9914;51.008;4.300;2022-09-30T17:18:52;3.53;;;2.83;;
19537;SDS011;9914;51.008;4.300;2022-09-30T17:21:18;4.50;;;2.90;;
19537;SDS011;9914;51.008;4.300;2022-09-30T17:23:45;5.27;;;2.90;;
19537;SDS011;9914;51.008;4.300;2022-09-30T17:26:11;4.07;;;3.10;;
19537;SDS011;9914;51.008;4.300;2022-09-30T17:28:37;3.70;;;3.00;;
19537;SDS011;9914;51.008;4.300;2022-09-30T17:31:02;3.93;;;3.57;;
19537;SDS011;9914;51.008;4.300;2022-09-30T17:33:29;3.77;;;3.40;;
19537;SDS011;9914;51.008;4.300;2022-09-30T17:36:00;3.83;;;3.10;;
19537;SDS011;9914;51.008;4.300;2022-09-30T17:38:28;3.20;;;2.90;;
19537;SDS011;9914;51.008;4.300;2022-09-30T17:40:54;4.07;;;3.47;;
19537;SDS011;9914;51.008;4.300;2022-09-30T17:43:38;3.93;;;3.53;;
19537;SDS011;9914;51.008;4.300;2022-09-30T17:46:04;4.13;;;3.40;;
19537;SDS011;9914;51.008;4.300;2022-09-30T17:48:30;3.83;;;3.07;;
19537;SDS011;9914;51.008;4.300;2022-09-30T17:50:55;4.00;;;3.60;;
19537;SDS011;9914;51.008;4.300;2022-09-30T17:53:21;3.50;;;3.20;;
19537;SDS011;9914;51.008;4.300;2022-09-30T17:55:48;2.97;;;2.73;;
19537;SDS011;9914;51.008;4.300;2022-09-30T17:58:24;3.47;;;3.17;;
19537;SDS011;9914;51.008;4.300;2022-09-30T18:00:50;4.37;;;3.30;;
19537;SDS011;9914;51.008;4.300;2022-09-30T18:03:16;5.43;;;3.60;;
19537;SDS011;9914;51.008;4.300;2022-09-30T18:05:42;3.53;;;3.30;;
19537;SDS011;9914;51.008;4.300;2022-09-30T18:08:12;4.40;;;3.90;;
19537;SDS011;9914;51.008;4.300;2022-09-30T18:10:38;4.77;;;3.37;;
19537;SDS011;9914;51.008;4.300;2022-09-30T18:13:04;4.10;;;3.70;;
19537;SDS011;9914;51.008;4.300;2022-09-30T18:15:30;5.17;;;3.80;;
19537;SDS011;9914;51.008;4.300;2022-09-30T18:17:55;4.30;;;3.90;;
19537;SDS011;9914;51.008;4.300;2022-09-30T18:20:21;3.80;;;3.40;;
19537;SDS011;9914;51.008;4.300;2022-09-30T18:22:47;4.50;;;3.40;;
19537;SDS011;9914;51.008;4.300;2022-09-30T18:25:13;5.73;;;3.47;;
19537;SDS011;9914;51.008;4.300;2022-09-30T18:27:55;4.63;;;3.23;;
19537;SDS011;9914;51.008;4.300;2022-09-30T18:30:22;4.17;;;3.27;;
19537;SDS011;9914;51.008;4.300;2022-09-30T18:32:49;5.53;;;3.63;;
19537;SDS011;9914;51.008;4.300;2022-09-30T18:35:16;3.80;;;3.30;;
19537;SDS011;9914;51.008;4.300;2022-09-30T18:37:44;3.73;;;3.00;;
19537;SDS011;9914;51.008;4.300;2022-09-30T18:40:16;5.63;;;2.93;;
19537;SDS011;9914;51.008;4.300;2022-09-30T18:42:46;4.17;;;3.00;;
19537;SDS011;9914;51.008;4.300;2022-09-30T18:45:16;3.93;;;2.77;;
19537;SDS011;9914;51.008;4.300;2022-09-30T18:47:42;4.40;;;3.23;;
19537;SDS011;9914;51.008;4.300;2022-09-30T18:50:09;3.30;;;3.00;;
19537;SDS011;9914;51.008;4.300;2022-09-30T18:52:36;3.80;;;2.80;;
19537;SDS011;9914;51.008;4.300;2022-09-30T18:55:03;3.20;;;2.90;;
19537;SDS011;9914;51.008;4.300;2022-09-30T18:57:29;2.83;;;2.63;;
19537;SDS011;9914;51.008;4.300;2022-09-30T18:59:56;3.93;;;2.80;;
19537;SDS011;9914;51.008;4.300;2022-09-30T19:02:22;3.83;;;2.60;;
19537;SDS011;9914;51.008;4.300;2022-09-30T19:04:49;3.37;;;3.00;;
19537;SDS011;9914;51.008;4.300;2022-09-30T19:07:20;3.27;;;2.97;;
19537;SDS011;9914;51.008;4.300;2022-09-30T19:09:48;3.83;;;3.00;;
19537;SDS011;9914;51.008;4.300;2022-09-30T19:12:14;8.10;;;3.13;;
19537;SDS011;9914;51.008;4.300;2022-09-30T19:14:41;3.37;;;3.07;;
19537;SDS011;9914;51.008;4.300;2022-09-30T19:17:11;5.40;;;3.10;;
19537;SDS011;9914;51.008;4.300;2022-09-30T19:19:37;3.17;;;2.87;;
19537;SDS011;9914;51.008;4.300;2022-09-30T19:22:05;5.07;;;3.20;;